Terminal Aerodrome Forecast
Issued by NWS

Home | Current Version | Previous Version | Text Only | Print | Product List | Glossary On
Versions: 1 2 3 4 5 6 7 8 9 10 11 12 13 14 15 16 17 18 19 20 21 22 23 24
000
FTUS43 KDLH 151100
TAFHIB
TAF
KHIB 151138Z 1512/1612 VRB05KT 1 1/2SM -RA BR OVC005
      TEMPO 1512/1515 31010KT 1/2SM FG OVC002
     FM151500 34010G18KT 3SM -RAPL BR OVC007
     FM152000 35012G24KT 3SM -SN OVC009
     FM160300 36015G28KT 4SM -SN BKN010 OVC025=

USA.gov is the U.S. government's official web portal to all federal, state and local government web resources and services.